Time;durP1;ratioP1;P1;durP2;ratioP2;P2;SDS_P1;SDS_P2;PMS_P1;PMS_P2;Temp;Humidity;BMP_temperature;BMP_pressure;BME280_temperature;BME280_humidity;BME280_pressure;Samples;Min_cycle;Max_cycle;Signal;HPM_P1;HPM_P2
2023/12/03 00:00:14;;;;;;;31.75;20.08;;;;;;;;;;5075401;28;20059;-59
2023/12/03 00:02:42;;;;;;;33.58;20.40;;;;;;;;;;5089362;28;20047;-58
2023/12/03 00:05:09;;;;;;;30.33;18.70;;;;;;;;;;5095024;28;20059;-58
2023/12/03 00:07:37;;;;;;;32.60;20.58;;;;;;;;;;5095536;28;20054;-58
2023/12/03 00:10:05;;;;;;;31.98;21.00;;;;;;;;;;5094854;28;20059;-58
2023/12/03 00:12:32;;;;;;;32.20;19.98;;;;;;;;;;5094994;28;20056;-58
2023/12/03 00:14:58;;;;;;;30.23;19.52;;;;;;;;;;5095186;28;20052;-58
2023/12/03 00:17:25;;;;;;;28.65;19.38;;;;;;;;;;5091502;28;20488;-58
2023/12/03 00:19:52;;;;;;;31.50;19.75;;;;;;;;;;5095096;28;20059;-59
2023/12/03 00:22:19;;;;;;;31.58;20.17;;;;;;;;;;5094528;28;20063;-58
2023/12/03 00:24:47;;;;;;;32.80;20.88;;;;;;;;;;5094642;28;20059;-58
2023/12/03 00:27:14;;;;;;;28.33;19.33;;;;;;;;;;5095219;28;20048;-58
2023/12/03 00:29:41;;;;;;;30.65;19.30;;;;;;;;;;5094861;28;20404;-58
2023/12/03 00:32:08;;;;;;;33.22;19.90;;;;;;;;;;5092024;28;20052;-58
2023/12/03 00:34:34;;;;;;;30.58;18.92;;;;;;;;;;5086658;28;20048;-58
2023/12/03 00:37:01;;;;;;;31.55;20.75;;;;;;;;;;5074780;28;20055;-59
2023/12/03 00:39:28;;;;;;;31.65;20.45;;;;;;;;;;5074773;28;20523;-59
2023/12/03 00:41:56;;;;;;;28.10;18.10;;;;;;;;;;5084734;28;20055;-59
2023/12/03 00:44:23;;;;;;;30.13;19.27;;;;;;;;;;5094807;28;20504;-59
2023/12/03 00:46:50;;;;;;;30.83;20.27;;;;;;;;;;5086483;28;20064;-59
2023/12/03 00:49:17;;;;;;;29.25;19.48;;;;;;;;;;5074534;28;20171;-59
2023/12/03 00:51:43;;;;;;;31.08;20.98;;;;;;;;;;5082800;28;20043;-59
2023/12/03 00:54:10;;;;;;;32.03;19.50;;;;;;;;;;5093991;28;20048;-59
2023/12/03 00:56:37;;;;;;;30.65;20.40;;;;;;;;;;5093932;28;20052;-59
2023/12/03 00:59:05;;;;;;;33.72;21.15;;;;;;;;;;5093962;28;20051;-59
2023/12/03 01:01:32;;;;;;;29.48;19.73;;;;;;;;;;5088278;28;20056;-59
2023/12/03 01:03:59;;;;;;;29.33;19.00;;;;;;;;;;5074033;28;20048;-59
2023/12/03 01:06:25;;;;;;;30.25;19.80;;;;;;;;;;5073017;28;20473;-59
2023/12/03 01:08:52;;;;;;;30.35;20.90;;;;;;;;;;5075416;28;20043;-58
2023/12/03 01:11:19;;;;;;;28.77;19.23;;;;;;;;;;5088921;28;20503;-59
2023/12/03 01:13:46;;;;;;;31.60;20.00;;;;;;;;;;5073349;28;20485;-59
2023/12/03 01:16:17;;;;;;;30.45;19.48;;;;;;;;;;5073580;28;20052;-59
2023/12/03 01:18:44;;;;;;;29.92;18.80;;;;;;;;;;5073172;28;20049;-59
2023/12/03 01:21:11;;;;;;;30.23;18.83;;;;;;;;;;5073284;28;20382;-59
2023/12/03 01:23:38;;;;;;;29.50;18.70;;;;;;;;;;5073009;28;20389;-59
2023/12/03 01:26:05;;;;;;;30.17;19.42;;;;;;;;;;5072761;28;20052;-58
2023/12/03 01:28:32;;;;;;;28.60;18.83;;;;;;;;;;5072245;28;20052;-59
2023/12/03 01:30:59;;;;;;;27.58;17.48;;;;;;;;;;5073346;28;20068;-59
2023/12/03 01:33:27;;;;;;;33.78;20.60;;;;;;;;;;5072290;28;20512;-59
2023/12/03 01:35:54;;;;;;;29.27;18.67;;;;;;;;;;5091799;28;20071;-59
2023/12/03 01:38:20;;;;;;;31.05;19.75;;;;;;;;;;5074106;28;20386;-59
2023/12/03 01:40:51;;;;;;;27.67;18.67;;;;;;;;;;5073573;28;20408;-59
2023/12/03 01:43:18;;;;;;;29.58;18.83;;;;;;;;;;5078007;28;20044;-59
2023/12/03 01:45:45;;;;;;;28.05;17.15;;;;;;;;;;5093080;28;20047;-59
2023/12/03 01:48:12;;;;;;;27.85;17.38;;;;;;;;;;5075468;28;20044;-59
2023/12/03 01:50:41;;;;;;;28.08;17.98;;;;;;;;;;5072676;28;20098;-59
2023/12/03 01:53:08;;;;;;;29.02;18.45;;;;;;;;;;5072870;28;20052;-59
2023/12/03 01:55:35;;;;;;;29.38;18.70;;;;;;;;;;5072734;28;20049;-59
2023/12/03 01:58:02;;;;;;;27.65;17.80;;;;;;;;;;5072735;28;20052;-58
2023/12/03 02:00:31;;;;;;;27.80;18.05;;;;;;;;;;5072676;28;20048;-58
2023/12/03 02:02:58;;;;;;;26.08;17.88;;;;;;;;;;5080095;28;20063;-59
2023/12/03 02:05:25;;;;;;;27.90;17.08;;;;;;;;;;5092525;28;20051;-59
2023/12/03 02:07:53;;;;;;;31.33;18.88;;;;;;;;;;5078073;28;20063;-58
2023/12/03 02:10:20;;;;;;;29.83;18.13;;;;;;;;;;5072958;28;20508;-59
2023/12/03 02:12:47;;;;;;;30.08;18.45;;;;;;;;;;5072602;28;20049;-59
2023/12/03 02:15:14;;;;;;;29.10;19.67;;;;;;;;;;5072455;28;20059;-59
2023/12/03 02:17:41;;;;;;;29.77;19.52;;;;;;;;;;5082378;28;20060;-58
2023/12/03 02:20:08;;;;;;;30.80;18.90;;;;;;;;;;5092796;28;20406;-59
2023/12/03 02:22:39;;;;;;;29.70;19.55;;;;;;;;;;5092942;28;20058;-58
2023/12/03 02:25:06;;;;;;;30.95;19.27;;;;;;;;;;5092591;28;20068;-58
2023/12/03 02:27:33;;;;;;;32.20;20.88;;;;;;;;;;5081371;28;20059;-58
2023/12/03 02:30:00;;;;;;;30.40;19.40;;;;;;;;;;5072406;28;20432;-59
2023/12/03 02:32:27;;;;;;;29.38;18.63;;;;;;;;;;5073411;28;20501;-58
2023/12/03 02:34:53;;;;;;;29.40;18.33;;;;;;;;;;5082283;28;20390;-59
2023/12/03 02:37:20;;;;;;;30.50;19.60;;;;;;;;;;5092187;28;20412;-58
2023/12/03 02:39:48;;;;;;;31.27;20.50;;;;;;;;;;5091965;28;20070;-58
2023/12/03 02:42:15;;;;;;;31.35;21.52;;;;;;;;;;5091763;28;20056;-58
2023/12/03 02:44:42;;;;;;;32.90;18.55;;;;;;;;;;5092681;28;20056;-59
2023/12/03 02:47:09;;;;;;;32.65;20.50;;;;;;;;;;5085425;28;20489;-59
2023/12/03 02:49:35;;;;;;;29.55;18.70;;;;;;;;;;5079034;28;20108;-58
2023/12/03 02:52:02;;;;;;;31.60;19.00;;;;;;;;;;5092403;28;20056;-59
2023/12/03 02:54:29;;;;;;;30.08;18.90;;;;;;;;;;5092253;28;20056;-59
2023/12/03 02:56:57;;;;;;;30.65;19.60;;;;;;;;;;5086551;28;20049;-59
2023/12/03 02:59:24;;;;;;;30.25;19.17;;;;;;;;;;5072499;28;20055;-59
2023/12/03 03:01:51;;;;;;;31.02;19.35;;;;;;;;;;5072811;28;20067;-59
2023/12/03 03:04:17;;;;;;;30.95;21.30;;;;;;;;;;5075142;28;20048;-60
2023/12/03 03:06:44;;;;;;;33.40;21.08;;;;;;;;;;5072626;28;20053;-59
2023/12/03 03:09:11;;;;;;;30.20;17.58;;;;;;;;;;5072338;28;20052;-59
2023/12/03 03:11:38;;;;;;;28.13;18.58;;;;;;;;;;5071934;28;20059;-59
2023/12/03 03:14:06;;;;;;;29.73;19.02;;;;;;;;;;5081842;28;20416;-59
2023/12/03 03:16:33;;;;;;;30.20;18.92;;;;;;;;;;5092210;28;20056;-59
2023/12/03 03:18:59;;;;;;;30.42;18.50;;;;;;;;;;5072729;28;20048;-59
2023/12/03 03:21:26;;;;;;;30.88;19.77;;;;;;;;;;5071742;28;20056;-59
2023/12/03 03:23:53;;;;;;;30.17;18.40;;;;;;;;;;5071967;28;20063;-59
2023/12/03 03:26:20;;;;;;;32.53;19.50;;;;;;;;;;5071906;28;20061;-59
2023/12/03 03:28:46;;;;;;;30.48;18.95;;;;;;;;;;5071459;28;20162;-59
2023/12/03 03:31:15;;;;;;;27.90;17.80;;;;;;;;;;5071841;28;20052;-59
2023/12/03 03:33:41;;;;;;;31.52;21.42;;;;;;;;;;5072464;28;20052;-60
2023/12/03 03:36:09;;;;;;;30.10;19.60;;;;;;;;;;5091877;28;20055;-58
2023/12/03 03:38:35;;;;;;;33.22;21.50;;;;;;;;;;5091676;28;20055;-58
2023/12/03 03:41:02;;;;;;;30.90;19.13;;;;;;;;;;5092104;28;20055;-59
2023/12/03 03:43:29;;;;;;;31.50;19.33;;;;;;;;;;5080986;28;20055;-59
2023/12/03 03:45:57;;;;;;;30.95;19.58;;;;;;;;;;5071489;28;20079;-59
2023/12/03 03:48:26;;;;;;;33.00;21.17;;;;;;;;;;5072312;28;20393;-59
2023/12/03 03:50:52;;;;;;;35.25;20.42;;;;;;;;;;5071477;28;20052;-59
2023/12/03 03:53:19;;;;;;;32.35;21.13;;;;;;;;;;5076328;28;20059;-59
2023/12/03 03:55:46;;;;;;;33.22;21.15;;;;;;;;;;5080140;28;20049;-59
2023/12/03 03:58:13;;;;;;;32.58;19.90;;;;;;;;;;5075261;28;20067;-59
2023/12/03 04:00:40;;;;;;;29.77;20.48;;;;;;;;;;5075012;28;20052;-59
2023/12/03 04:03:07;;;;;;;33.42;21.08;;;;;;;;;;5077591;28;20056;-59
2023/12/03 04:05:35;;;;;;;33.70;20.65;;;;;;;;;;5079063;28;20040;-60
2023/12/03 04:08:02;;;;;;;31.75;19.70;;;;;;;;;;5075157;28;20477;-59
2023/12/03 04:10:28;;;;;;;32.45;20.00;;;;;;;;;;5074622;28;20454;-59
2023/12/03 04:12:56;;;;;;;33.85;20.02;;;;;;;;;;5075285;28;20476;-59
2023/12/03 04:15:23;;;;;;;36.45;21.55;;;;;;;;;;5075567;28;20055;-59
2023/12/03 04:17:50;;;;;;;30.30;18.85;;;;;;;;;;5074718;28;20048;-59
2023/12/03 04:20:17;;;;;;;28.30;19.77;;;;;;;;;;5077138;28;20052;-61
2023/12/03 04:22:45;;;;;;;32.13;19.67;;;;;;;;;;5095004;28;20062;-59
2023/12/03 04:25:12;;;;;;;29.67;18.60;;;;;;;;;;5093865;28;20401;-58
2023/12/03 04:27:39;;;;;;;30.27;18.58;;;;;;;;;;5080990;28;20075;-58
2023/12/03 04:30:06;;;;;;;28.17;18.95;;;;;;;;;;5074319;28;20056;-59
2023/12/03 04:32:33;;;;;;;28.95;18.05;;;;;;;;;;5089698;28;20139;-59
2023/12/03 04:35:00;;;;;;;30.92;19.63;;;;;;;;;;5088672;28;20055;-59
2023/12/03 04:37:26;;;;;;;30.52;19.92;;;;;;;;;;5094883;28;20051;-59
2023/12/03 04:39:55;;;;;;;28.65;18.75;;;;;;;;;;5094696;28;20067;-58
2023/12/03 04:42:21;;;;;;;33.17;19.77;;;;;;;;;;5094467;28;20079;-59
2023/12/03 04:44:49;;;;;;;29.50;19.38;;;;;;;;;;5079402;28;20485;-59
2023/12/03 04:47:16;;;;;;;30.35;18.90;;;;;;;;;;5092767;28;20051;-59
2023/12/03 04:49:43;;;;;;;27.63;18.27;;;;;;;;;;5081539;28;20057;-59
2023/12/03 04:52:10;;;;;;;28.55;18.73;;;;;;;;;;5079650;28;20056;-58
2023/12/03 04:54:36;;;;;;;32.83;19.85;;;;;;;;;;5094522;28;20055;-59
2023/12/03 04:57:05;;;;;;;32.25;20.70;;;;;;;;;;5094106;28;20059;-59
2023/12/03 04:59:31;;;;;;;32.03;20.20;;;;;;;;;;5094232;28;20052;-59
2023/12/03 05:01:58;;;;;;;30.92;18.02;;;;;;;;;;5089474;28;20078;-58
2023/12/03 05:04:26;;;;;;;29.65;18.80;;;;;;;;;;5074111;28;20044;-59
2023/12/03 05:06:53;;;;;;;33.55;20.13;;;;;;;;;;5074119;28;20055;-59
2023/12/03 05:09:20;;;;;;;29.88;18.88;;;;;;;;;;5073005;28;20100;-59
2023/12/03 05:11:48;;;;;;;27.25;18.30;;;;;;;;;;5072616;28;20072;-58
2023/12/03 05:14:16;;;;;;;27.33;18.23;;;;;;;;;;5073604;28;20060;-59
2023/12/03 05:16:43;;;;;;;27.85;17.27;;;;;;;;;;5073722;28;20481;-59
2023/12/03 05:19:10;;;;;;;28.65;18.10;;;;;;;;;;5073773;28;20473;-58
2023/12/03 05:21:37;;;;;;;26.77;17.42;;;;;;;;;;5073806;28;20067;-58
2023/12/03 05:24:04;;;;;;;29.33;18.20;;;;;;;;;;5073625;28;20056;-59
2023/12/03 05:26:31;;;;;;;30.90;19.40;;;;;;;;;;5073309;28;20045;-58
2023/12/03 05:28:57;;;;;;;29.77;19.08;;;;;;;;;;5080123;28;20063;-58
2023/12/03 05:31:25;;;;;;;30.48;18.70;;;;;;;;;;5093215;28;20483;-59
2023/12/03 05:33:52;;;;;;;31.13;19.58;;;;;;;;;;5089830;28;20067;-59
2023/12/03 05:36:20;;;;;;;28.33;17.42;;;;;;;;;;5092843;28;20052;-58
2023/12/03 05:38:47;;;;;;;27.27;17.08;;;;;;;;;;5088098;28;20056;-59
2023/12/03 05:41:14;;;;;;;27.15;16.38;;;;;;;;;;5073429;28;20052;-59
2023/12/03 05:43:40;;;;;;;27.77;18.73;;;;;;;;;;5073108;28;20048;-59
2023/12/03 05:46:07;;;;;;;28.73;17.30;;;;;;;;;;5073265;28;20049;-59
2023/12/03 05:48:35;;;;;;;26.45;17.85;;;;;;;;;;5073941;28;20056;-58
2023/12/03 05:51:02;;;;;;;25.83;17.33;;;;;;;;;;5073115;28;20056;-58
2023/12/03 05:53:29;;;;;;;28.00;18.40;;;;;;;;;;5073151;28;20049;-58
2023/12/03 05:55:56;;;;;;;30.88;19.10;;;;;;;;;;5073043;28;20392;-58
2023/12/03 05:58:22;;;;;;;26.02;17.88;;;;;;;;;;5073672;28;20426;-58
2023/12/03 06:00:49;;;;;;;26.55;16.95;;;;;;;;;;5093157;28;20059;-58
2023/12/03 06:03:16;;;;;;;25.35;17.50;;;;;;;;;;5093093;28;20381;-58
2023/12/03 06:05:44;;;;;;;25.60;16.50;;;;;;;;;;5089617;28;20052;-58
2023/12/03 06:08:11;;;;;;;25.55;17.10;;;;;;;;;;5092955;28;20071;-58
2023/12/03 06:10:38;;;;;;;25.42;15.80;;;;;;;;;;5075259;28;20394;-58
2023/12/03 06:13:04;;;;;;;23.17;15.43;;;;;;;;;;5092940;28;20485;-58
2023/12/03 06:15:31;;;;;;;24.20;16.70;;;;;;;;;;5092482;28;20408;-58
2023/12/03 06:17:58;;;;;;;20.85;14.05;;;;;;;;;;5092608;28;20048;-58
2023/12/03 06:20:25;;;;;;;22.63;14.35;;;;;;;;;;5075212;28;20064;-59
2023/12/03 06:22:53;;;;;;;21.00;14.48;;;;;;;;;;5072375;28;20063;-58
2023/12/03 06:25:20;;;;;;;24.45;15.85;;;;;;;;;;5072062;28;20052;-58
2023/12/03 06:27:47;;;;;;;22.83;14.73;;;;;;;;;;5072091;28;20052;-58
2023/12/03 06:30:14;;;;;;;21.75;14.68;;;;;;;;;;5087622;28;20051;-58
2023/12/03 06:32:41;;;;;;;21.45;14.50;;;;;;;;;;5092967;28;20075;-58
2023/12/03 06:35:10;;;;;;;20.10;12.85;;;;;;;;;;5080399;28;20056;-58
2023/12/03 06:37:37;;;;;;;24.08;15.57;;;;;;;;;;5072302;28;20056;-59
2023/12/03 06:40:06;;;;;;;24.00;15.48;;;;;;;;;;5086156;28;20059;-58
2023/12/03 06:42:33;;;;;;;21.58;14.75;;;;;;;;;;5091773;28;20078;-58
2023/12/03 06:44:59;;;;;;;24.33;16.35;;;;;;;;;;5091880;28;20409;-59
2023/12/03 06:47:26;;;;;;;21.98;15.20;;;;;;;;;;5092469;28;20378;-59
2023/12/03 06:49:53;;;;;;;21.10;13.93;;;;;;;;;;5079299;28;20059;-58
2023/12/03 06:52:20;;;;;;;21.80;14.32;;;;;;;;;;5072281;28;20057;-58
2023/12/03 06:54:47;;;;;;;21.85;13.35;;;;;;;;;;5072294;28;20056;-58
2023/12/03 06:57:15;;;;;;;23.30;15.15;;;;;;;;;;5071884;28;20059;-58
2023/12/03 06:59:42;;;;;;;19.83;13.88;;;;;;;;;;5082307;28;20059;-58
2023/12/03 07:02:08;;;;;;;21.73;15.40;;;;;;;;;;5091434;28;20048;-59
2023/12/03 07:04:35;;;;;;;21.08;13.95;;;;;;;;;;5084025;28;20057;-58
2023/12/03 07:07:02;;;;;;;21.67;14.55;;;;;;;;;;5072050;28;20055;-58
2023/12/03 07:09:29;;;;;;;20.13;14.20;;;;;;;;;;5071644;28;20048;-58
2023/12/03 07:11:55;;;;;;;20.95;13.05;;;;;;;;;;5081306;28;20408;-58
2023/12/03 07:14:24;;;;;;;20.90;13.95;;;;;;;;;;5092073;28;20059;-58
2023/12/03 07:16:50;;;;;;;20.75;13.60;;;;;;;;;;5091719;28;20044;-58
2023/12/03 07:19:17;;;;;;;20.40;14.23;;;;;;;;;;5079101;28;20051;-58
2023/12/03 07:21:44;;;;;;;19.15;13.98;;;;;;;;;;5071545;28;20424;-59
2023/12/03 07:24:11;;;;;;;19.35;13.85;;;;;;;;;;5071451;28;20056;-58
2023/12/03 07:26:38;;;;;;;18.20;12.98;;;;;;;;;;5073179;28;20052;-58
2023/12/03 07:29:04;;;;;;;17.02;11.57;;;;;;;;;;5081513;28;20078;-59
2023/12/03 07:31:32;;;;;;;20.02;13.20;;;;;;;;;;5083481;28;20477;-59
2023/12/03 07:33:59;;;;;;;18.77;13.38;;;;;;;;;;5090499;28;20063;-58
2023/12/03 07:36:26;;;;;;;17.17;12.45;;;;;;;;;;5075291;28;20067;-57
2023/12/03 07:38:56;;;;;;;17.35;11.95;;;;;;;;;;5087748;28;20496;-58
2023/12/03 07:41:22;;;;;;;15.15;11.18;;;;;;;;;;5087290;28;20048;-59
2023/12/03 07:43:49;;;;;;;16.35;11.90;;;;;;;;;;5077513;28;20048;-59
2023/12/03 07:46:17;;;;;;;17.10;12.60;;;;;;;;;;5095792;28;20093;-58
2023/12/03 07:48:45;;;;;;;18.30;12.65;;;;;;;;;;5075734;28;20052;-58
2023/12/03 07:51:12;;;;;;;18.50;11.90;;;;;;;;;;5075270;28;20052;-58
2023/12/03 07:53:40;;;;;;;17.10;12.27;;;;;;;;;;5083618;28;20424;-58
2023/12/03 07:56:07;;;;;;;18.13;12.68;;;;;;;;;;5090875;28;20107;-58
2023/12/03 07:58:35;;;;;;;17.77;11.65;;;;;;;;;;5074701;28;20409;-58
2023/12/03 08:01:03;;;;;;;19.10;12.57;;;;;;;;;;5088666;28;20056;-58
2023/12/03 08:03:30;;;;;;;16.83;11.80;;;;;;;;;;5079345;28;20052;-58
2023/12/03 08:05:58;;;;;;;19.02;12.50;;;;;;;;;;5079365;28;20048;-58
2023/12/03 08:08:25;;;;;;;17.77;12.20;;;;;;;;;;5088534;28;20043;-58
2023/12/03 08:10:52;;;;;;;18.45;12.93;;;;;;;;;;5074796;28;20063;-59
2023/12/03 08:13:19;;;;;;;17.52;12.52;;;;;;;;;;5094321;28;20082;-58
2023/12/03 08:15:46;;;;;;;18.13;12.55;;;;;;;;;;5079474;28;20059;-58
2023/12/03 08:18:12;;;;;;;17.00;11.68;;;;;;;;;;5080277;28;20044;-58
2023/12/03 08:20:39;;;;;;;17.67;11.85;;;;;;;;;;5080687;28;20413;-58
2023/12/03 08:23:07;;;;;;;17.73;12.27;;;;;;;;;;5085628;28;20064;-58
2023/12/03 08:25:34;;;;;;;17.13;11.70;;;;;;;;;;5094545;28;20052;-58
2023/12/03 08:28:02;;;;;;;18.10;11.75;;;;;;;;;;5093269;28;20051;-58
2023/12/03 08:30:29;;;;;;;17.00;12.07;;;;;;;;;;5082703;28;20056;-58
2023/12/03 08:32:56;;;;;;;17.05;11.07;;;;;;;;;;5081327;28;20067;-58
2023/12/03 08:35:23;;;;;;;17.08;10.48;;;;;;;;;;5091774;28;20421;-61
2023/12/03 08:37:49;;;;;;;16.60;11.25;;;;;;;;;;5074197;28;20055;-57
2023/12/03 08:40:18;;;;;;;15.68;10.85;;;;;;;;;;5091878;28;20059;-58
2023/12/03 08:42:49;;;;;;;15.82;10.85;;;;;;;;;;5087164;28;20139;-58
2023/12/03 08:45:16;;;;;;;16.75;11.27;;;;;;;;;;5084875;28;20056;-58
2023/12/03 08:47:43;;;;;;;18.30;12.75;;;;;;;;;;5078211;28;20052;-57
2023/12/03 08:50:10;;;;;;;15.48;11.45;;;;;;;;;;5094476;28;20102;-58
2023/12/03 08:52:36;;;;;;;13.70;10.20;;;;;;;;;;5093438;28;20052;-58
2023/12/03 08:55:04;;;;;;;18.30;11.35;;;;;;;;;;5079051;28;20490;-58
2023/12/03 08:57:32;;;;;;;15.98;10.57;;;;;;;;;;5082822;28;20071;-58
2023/12/03 08:59:59;;;;;;;16.17;11.02;;;;;;;;;;5089244;28;20430;-58
2023/12/03 09:02:25;;;;;;;14.80;11.00;;;;;;;;;;5073841;28;20398;-59
2023/12/03 09:04:52;;;;;;;14.07;10.27;;;;;;;;;;5082817;28;20509;-59
2023/12/03 09:07:20;;;;;;;13.55;9.95;;;;;;;;;;5073879;28;20060;-58
2023/12/03 09:09:48;;;;;;;13.30;10.68;;;;;;;;;;5075053;28;20056;-59
2023/12/03 09:12:17;;;;;;;14.63;10.32;;;;;;;;;;5081084;28;21418;-59
2023/12/03 09:14:45;;;;;;;16.35;11.20;;;;;;;;;;5075080;28;20052;-59
2023/12/03 09:17:12;;;;;;;12.63;9.88;;;;;;;;;;5076209;28;20438;-58
2023/12/03 09:19:39;;;;;;;14.05;9.80;;;;;;;;;;5076029;28;20118;-59
2023/12/03 09:22:06;;;;;;;12.48;9.52;;;;;;;;;;5079308;28;20401;-59
2023/12/03 09:24:32;;;;;;;12.82;9.98;;;;;;;;;;5074312;28;20052;-59
2023/12/03 09:26:59;;;;;;;13.80;9.93;;;;;;;;;;5088606;28;20078;-58
2023/12/03 09:29:26;;;;;;;12.50;9.27;;;;;;;;;;5079200;28;20049;-59
2023/12/03 09:31:54;;;;;;;11.93;9.57;;;;;;;;;;5077730;28;20057;-58
2023/12/03 09:34:21;;;;;;;11.88;9.98;;;;;;;;;;5080751;28;20044;-58
2023/12/03 09:36:48;;;;;;;13.25;9.98;;;;;;;;;;5078475;28;20071;-59
2023/12/03 09:39:15;;;;;;;13.95;10.02;;;;;;;;;;5081708;28;20044;-59
2023/12/03 09:41:43;;;;;;;14.05;10.05;;;;;;;;;;5088495;28;20489;-58
2023/12/03 09:44:17;;;;;;;12.98;9.90;;;;;;;;;;5072676;28;20448;-59
2023/12/03 09:46:45;;;;;;;11.45;9.68;;;;;;;;;;5073001;28;20052;-59
2023/12/03 09:49:14;;;;;;;12.93;9.70;;;;;;;;;;5072373;28;20048;-59
2023/12/03 09:51:42;;;;;;;13.00;10.15;;;;;;;;;;5084393;28;20051;-59
2023/12/03 09:54:09;;;;;;;15.02;10.60;;;;;;;;;;5091798;28;20075;-59
2023/12/03 09:56:37;;;;;;;14.02;10.70;;;;;;;;;;5090473;28;20181;-58
2023/12/03 09:59:05;;;;;;;13.32;10.05;;;;;;;;;;5072421;28;20048;-58
2023/12/03 10:01:33;;;;;;;13.20;10.55;;;;;;;;;;5089865;28;20052;-58
2023/12/03 10:04:00;;;;;;;14.57;10.98;;;;;;;;;;5078959;28;20059;-59
2023/12/03 10:06:28;;;;;;;15.35;10.77;;;;;;;;;;5075986;28;20052;-58
2023/12/03 10:08:55;;;;;;;15.70;11.10;;;;;;;;;;5074575;28;20579;-59
2023/12/03 10:11:24;;;;;;;14.52;10.77;;;;;;;;;;5084571;28;20052;-60
2023/12/03 10:13:51;;;;;;;13.63;10.23;;;;;;;;;;5073793;28;20119;-59
2023/12/03 10:16:20;;;;;;;14.85;10.32;;;;;;;;;;5083777;28;20059;-58
2023/12/03 10:18:46;;;;;;;13.98;10.18;;;;;;;;;;5073115;28;20508;-57
2023/12/03 10:21:13;;;;;;;13.13;9.77;;;;;;;;;;5085720;28;20373;-58
2023/12/03 10:23:41;;;;;;;13.82;10.65;;;;;;;;;;5082919;28;20059;-57
2023/12/03 10:26:12;;;;;;;12.60;10.13;;;;;;;;;;5075763;28;20048;-58
2023/12/03 10:28:39;;;;;;;13.13;10.13;;;;;;;;;;5091968;28;20051;-59
2023/12/03 10:31:06;;;;;;;12.85;10.13;;;;;;;;;;5073685;28;20124;-58
2023/12/03 10:33:34;;;;;;;13.02;10.13;;;;;;;;;;5072600;28;20048;-58
2023/12/03 10:36:03;;;;;;;11.65;9.77;;;;;;;;;;5081990;28;20052;-59
2023/12/03 10:38:36;;;;;;;12.32;9.90;;;;;;;;;;5082232;28;20051;-58
2023/12/03 10:41:06;;;;;;;11.40;9.80;;;;;;;;;;5082110;28;20059;-58
2023/12/03 10:43:32;;;;;;;;;;;;;;;;;;5092177;28;20083;-58
2023/12/03 10:45:59;;;;;;;12.27;9.98;;;;;;;;;;5074272;28;19920;-58
2023/12/03 10:48:27;;;;;;;11.20;9.38;;;;;;;;;;5071732;28;20052;-58
2023/12/03 10:50:55;;;;;;;14.00;11.05;;;;;;;;;;5079089;28;20091;-58
2023/12/03 10:53:22;;;;;;;13.23;10.23;;;;;;;;;;5088739;28;20812;-58
2023/12/03 10:55:48;;;;;;;13.65;10.50;;;;;;;;;;5077684;28;20052;-58
2023/12/03 10:58:19;;;;;;;12.52;10.68;;;;;;;;;;5076895;28;20044;-58
2023/12/03 11:00:50;;;;;;;13.38;11.35;;;;;;;;;;5094021;28;20074;-58
2023/12/03 11:03:23;;;;;;;13.27;10.30;;;;;;;;;;5088574;28;20473;-58
2023/12/03 11:05:51;;;;;;;12.93;10.45;;;;;;;;;;5079123;28;20057;-58
2023/12/03 11:08:20;;;;;;;12.65;10.43;;;;;;;;;;5077446;28;20057;-58
2023/12/03 11:10:47;;;;;;;13.23;10.27;;;;;;;;;;5076120;28;20044;-59
2023/12/03 11:13:14;;;;;;;12.30;10.00;;;;;;;;;;5083382;28;20052;-58
2023/12/03 11:15:44;;;;;;;13.68;11.00;;;;;;;;;;5079240;28;20065;-60
2023/12/03 11:18:11;;;;;;;11.90;10.43;;;;;;;;;;5075576;28;20519;-59
2023/12/03 11:20:39;;;;;;;12.50;10.45;;;;;;;;;;5085217;28;20428;-58
2023/12/03 11:23:20;;;;;;;13.20;11.48;;;;;;;;;;5076592;28;20056;-58
2023/12/03 11:25:51;;;;;;;12.77;10.90;;;;;;;;;;5081593;28;20047;-57
2023/12/03 11:28:18;;;;;;;13.38;10.63;;;;;;;;;;5087510;28;20122;-57
2023/12/03 11:30:48;;;;;;;14.00;11.98;;;;;;;;;;5081141;28;20052;-58
2023/12/03 11:33:14;;;;;;;;;;;;;;;;;;5075480;28;20052;-58
2023/12/03 11:35:42;;;;;;;12.73;9.88;;;;;;;;;;5074848;28;20276;-59
2023/12/03 11:38:09;;;;;;;12.88;10.85;;;;;;;;;;5076020;28;20055;-58
2023/12/03 11:40:38;;;;;;;13.63;11.02;;;;;;;;;;5077534;28;20434;-58
2023/12/03 11:43:06;;;;;;;12.90;10.80;;;;;;;;;;5075329;28;20049;-58
2023/12/03 11:45:43;;;;;;;13.40;10.70;;;;;;;;;;5078926;28;20051;-58
2023/12/03 11:48:14;;;;;;;12.93;11.52;;;;;;;;;;5074477;28;20482;-58
2023/12/03 11:50:42;;;;;;;13.20;11.07;;;;;;;;;;5074678;28;20401;-58
2023/12/03 11:53:09;;;;;;;12.82;11.15;;;;;;;;;;5074436;28;20416;-59
2023/12/03 11:55:39;;;;;;;12.77;10.68;;;;;;;;;;5084179;28;20169;-57
2023/12/03 11:58:06;;;;;;;14.45;10.82;;;;;;;;;;5079657;28;20449;-58
2023/12/03 12:00:38;;;;;;;15.60;12.27;;;;;;;;;;5075536;28;20408;-58
2023/12/03 12:03:06;;;;;;;13.70;10.85;;;;;;;;;;5080868;28;20390;-58
2023/12/03 12:05:42;;;;;;;14.45;11.98;;;;;;;;;;5081774;28;20049;-58
2023/12/03 12:08:09;;;;;;;14.55;10.95;;;;;;;;;;5091433;28;20067;-58
2023/12/03 12:10:36;;;;;;;14.38;11.20;;;;;;;;;;5080938;28;20059;-58
2023/12/03 12:13:03;;;;;;;14.85;12.27;;;;;;;;;;5074767;28;20052;-58
2023/12/03 12:15:30;;;;;;;15.35;11.20;;;;;;;;;;5095146;28;20146;-59
2023/12/03 12:17:57;;;;;;;17.00;12.98;;;;;;;;;;5096267;28;20412;-59
2023/12/03 12:20:25;;;;;;;15.13;11.52;;;;;;;;;;5089285;28;20044;-59
2023/12/03 12:22:56;;;;;;;18.80;12.88;;;;;;;;;;5074636;28;20386;-60
2023/12/03 12:25:24;;;;;;;16.52;11.73;;;;;;;;;;5080554;28;20059;-59
2023/12/03 12:27:51;;;;;;;16.55;11.02;;;;;;;;;;5076702;28;20048;-58
2023/12/03 12:30:19;;;;;;;14.95;11.98;;;;;;;;;;5080594;28;20063;-59
2023/12/03 12:32:51;;;;;;;14.45;10.98;;;;;;;;;;5081188;28;20056;-59
2023/12/03 12:35:22;;;;;;;14.27;10.90;;;;;;;;;;5074158;28;20056;-59
2023/12/03 12:38:00;;;;;;;13.02;10.40;;;;;;;;;;5074316;28;20052;-58
2023/12/03 12:40:27;;;;;;;14.43;10.60;;;;;;;;;;5074159;28;20049;-58
2023/12/03 12:43:03;;;;;;;15.18;11.85;;;;;;;;;;5074193;28;20060;-58
2023/12/03 12:45:32;;;;;;;15.43;11.73;;;;;;;;;;5073815;28;20421;-58
2023/12/03 12:47:59;;;;;;;13.77;10.82;;;;;;;;;;5078535;28;20056;-59
2023/12/03 12:50:33;;;;;;;13.98;11.05;;;;;;;;;;5080998;28;20409;-59
2023/12/03 12:53:02;;;;;;;15.20;11.55;;;;;;;;;;5082461;28;20408;-59
2023/12/03 12:55:29;;;;;;;12.95;11.07;;;;;;;;;;5084200;28;20118;-58
2023/12/03 12:57:57;;;;;;;14.68;11.65;;;;;;;;;;5075890;28;20067;-59
2023/12/03 13:00:24;;;;;;;11.95;10.48;;;;;;;;;;5078346;28;20505;-59
2023/12/03 13:02:52;;;;;;;13.80;11.38;;;;;;;;;;5072303;28;20048;-59
2023/12/03 13:05:19;;;;;;;13.10;11.00;;;;;;;;;;5073505;28;20055;-60
2023/12/03 13:07:46;;;;;;;12.10;10.65;;;;;;;;;;5085132;28;20051;-59
2023/12/03 13:10:15;;;;;;;13.27;10.77;;;;;;;;;;5087880;28;20050;-58
2023/12/03 13:12:43;;;;;;;14.55;11.88;;;;;;;;;;5083048;28;20053;-59
2023/12/03 13:15:11;;;;;;;14.82;12.38;;;;;;;;;;5072844;28;20083;-59
2023/12/03 13:17:45;;;;;;;13.90;11.25;;;;;;;;;;5074536;28;20068;-59
2023/12/03 13:20:12;;;;;;;14.40;12.90;;;;;;;;;;5082036;28;20051;-57
2023/12/03 13:22:38;;;;;;;14.27;12.13;;;;;;;;;;5079352;28;20413;-59
2023/12/03 13:25:07;;;;;;;13.98;12.48;;;;;;;;;;5076140;28;20044;-59
2023/12/03 13:27:36;;;;;;;13.65;11.02;;;;;;;;;;5073199;28;20053;-58
2023/12/03 13:30:04;;;;;;;13.90;11.18;;;;;;;;;;5082918;28;20044;-59
2023/12/03 13:32:33;;;;;;;14.00;11.10;;;;;;;;;;5073087;28;20053;-60
2023/12/03 13:35:01;;;;;;;14.33;11.50;;;;;;;;;;5072250;28;20048;-59
2023/12/03 13:37:29;;;;;;;12.60;10.85;;;;;;;;;;5087686;28;20052;-59
2023/12/03 13:39:56;;;;;;;14.38;10.48;;;;;;;;;;5083039;28;20048;-58
2023/12/03 13:42:22;;;;;;;12.02;10.00;;;;;;;;;;5078505;28;20056;-59
2023/12/03 13:44:53;;;;;;;13.30;10.32;;;;;;;;;;5079391;28;20051;-59
2023/12/03 13:47:20;;;;;;;12.93;10.77;;;;;;;;;;5075835;28;20052;-59
2023/12/03 13:49:47;;;;;;;13.30;10.30;;;;;;;;;;5074815;28;20056;-58
2023/12/03 13:52:14;;;;;;;13.60;10.70;;;;;;;;;;5090129;28;20504;-59
2023/12/03 13:54:40;;;;;;;13.00;9.93;;;;;;;;;;5079308;28;20063;-58
2023/12/03 13:57:07;;;;;;;13.75;10.48;;;;;;;;;;5081030;28;20590;-59
2023/12/03 13:59:34;;;;;;;14.02;10.35;;;;;;;;;;5086280;28;20053;-58
2023/12/03 14:02:05;;;;;;;14.43;10.93;;;;;;;;;;5074387;28;20048;-58
2023/12/03 14:04:32;;;;;;;14.10;10.27;;;;;;;;;;5077827;28;20493;-58
2023/12/03 14:06:59;;;;;;;14.95;10.75;;;;;;;;;;5088377;28;20507;-58
2023/12/03 14:09:26;;;;;;;13.68;10.50;;;;;;;;;;5074752;28;20049;-57
2023/12/03 14:11:53;;;;;;;15.10;10.98;;;;;;;;;;5085556;28;20396;-58
2023/12/03 14:14:20;;;;;;;15.55;10.70;;;;;;;;;;5073086;28;20044;-58
2023/12/03 14:16:53;;;;;;;15.18;10.70;;;;;;;;;;5085191;28;20051;-58
2023/12/03 14:19:21;;;;;;;13.85;10.40;;;;;;;;;;5077231;28;20053;-58